weather.gov     
National Weather Service

Terminal Aerodrome Forecast
NWS Homepage
This page is being discontinued on March 12, 2014.
The same data is available at this site. Please update your bookmarks.
Thank you, and we apologize for the inconvenience.
Please send an email to SR-SRH.Webmaster@noaa.gov with any concerns.


Current Version
Previous Version:    01  02  03  04  05  06  07  08  09  10  11  12  13  14  15  16  17  18  19  20  21  22  23  24  25  26  27  28  29  30  
   31  
[Printable]
237
FTAK31 PAJN 211700
TAFAWG
TAF
PAWG 211722Z 2118/2218 15012KT 6SM -RA BR BKN025 OVC035
      TEMPO 2118/2121 14015G25KT BKN035 OVC050
     FM212200 12005KT P6SM -SHRA SCT025 OVC035
     FM220300 VRB05KT 6SM BR VCSH SCT025 OVC050
     FM221300 VRB05KT 6SM -SHRA SCT015 OVC025
      AMD LTD TO CLD VIS AND WIND 2206/2215=


U.S. Dept. of Commerce
NOAA National Weather Service
1325 East West Highway
Silver Spring, MD 20910
E-mail: w-nws.webmaster@noaa.gov
Page last modified: May 16, 2007
NATIONAL WEATHER SERVICE: for Safety, for Work, for Fun - FOR LIFE